Time;durP1;ratioP1;P1;durP2;ratioP2;P2;SDS_P1;SDS_P2;PMS_P1;PMS_P2;Temp;Humidity;BMP_temperature;BMP_pressure;BME280_temperature;BME280_humidity;BME280_pressure;Samples;Min_cycle;Max_cycle;Signal;HPM_P1;HPM_P2
2022/05/02 00:00:17;;;;;;;2.17;1.97;;;23.20;53.00;;;;;;5076665;28;20844;-83
2022/05/02 00:02:44;;;;;;;2.10;2.00;;;23.30;53.10;;;;;;5076407;28;20433;-83
2022/05/02 00:05:12;;;;;;;2.07;1.97;;;23.30;53.10;;;;;;5075960;28;20468;-83
2022/05/02 00:07:39;;;;;;;2.47;2.27;;;23.30;53.10;;;;;;5076293;28;20444;-83
2022/05/02 00:10:07;;;;;;;2.00;1.87;;;23.30;53.00;;;;;;5076421;28;20776;-83
2022/05/02 00:12:34;;;;;;;2.10;2.00;;;23.30;53.00;;;;;;5075894;28;20445;-82
2022/05/02 00:15:01;;;;;;;2.10;2.00;;;23.30;53.00;;;;;;5076214;28;20498;-83
2022/05/02 00:20:09;;;;;;;2.00;1.90;;;23.40;53.10;;;;;;5074996;28;20421;-83
2022/05/02 00:22:37;;;;;;;2.20;2.00;;;23.30;53.00;;;;;;5076605;28;20811;-83
2022/05/02 00:25:05;;;;;;;2.00;1.90;;;23.20;52.90;;;;;;5076068;28;20447;-83
2022/05/02 00:27:32;;;;;;;1.80;1.70;;;23.20;52.90;;;;;;5058385;28;20793;-83
2022/05/02 00:30:00;;;;;;;2.30;2.10;;;23.30;53.00;;;;;;5075712;28;20459;-83
2022/05/02 00:32:27;;;;;;;2.00;1.80;;;23.20;52.90;;;;;;5075955;28;20459;-81
2022/05/02 00:34:53;;;;;;;2.17;1.97;;;23.30;53.00;;;;;;5075826;28;20537;-83
2022/05/02 00:37:20;;;;;;;2.13;2.03;;;23.20;52.90;;;;;;5075673;28;20447;-83
2022/05/02 00:39:49;;;;;;;2.10;2.00;;;23.20;52.90;;;;;;5075142;28;20443;-83
2022/05/02 00:42:16;;;;;;;2.33;2.13;;;23.20;52.90;;;;;;5075724;28;20441;-82
2022/05/02 00:44:44;;;;;;;1.80;1.70;;;23.30;53.00;;;;;;5075453;28;20465;-82
2022/05/02 00:47:11;;;;;;;1.80;1.70;;;23.20;52.90;;;;;;5075781;28;20437;-83
2022/05/02 00:49:39;;;;;;;2.10;1.90;;;23.40;53.00;;;;;;5075494;28;20443;-83
2022/05/02 00:52:07;;;;;;;1.70;1.60;;;23.20;52.90;;;;;;5075499;28;20437;-83
2022/05/02 00:54:35;;;;;;;1.90;1.80;;;23.30;52.90;;;;;;5075578;28;20788;-83
2022/05/02 00:57:05;;;;;;;2.30;2.10;;;23.20;52.80;;;;;;5075191;28;20942;-83
2022/05/02 00:59:33;;;;;;;2.10;1.90;;;23.20;52.80;;;;;;5075381;28;20441;-83
2022/05/02 01:02:00;;;;;;;2.07;1.97;;;23.20;52.90;;;;;;5075495;28;20811;-83
2022/05/02 01:04:27;;;;;;;1.60;1.50;;;23.20;52.80;;;;;;5075156;28;20433;-82
2022/05/02 01:07:12;;;;;;;2.03;1.93;;;23.20;52.80;;;;;;5075169;28;20822;-82
2022/05/02 01:09:41;;;;;;;1.90;1.80;;;23.20;52.80;;;;;;5075386;28;20498;-83
2022/05/02 01:12:24;;;;;;;1.70;1.60;;;23.20;52.80;;;;;;5057516;28;20525;-82
2022/05/02 01:14:53;;;;;;;2.20;2.10;;;23.30;52.90;;;;;;5075114;28;20545;-83
2022/05/02 01:17:20;;;;;;;1.80;1.70;;;23.20;52.80;;;;;;5075288;28;20451;-83
2022/05/02 01:19:48;;;;;;;2.40;2.20;;;23.20;52.80;;;;;;5074950;28;20451;-83
2022/05/02 01:22:17;;;;;;;1.90;1.80;;;23.20;52.80;;;;;;5075026;28;20440;-83
2022/05/02 01:24:45;;;;;;;1.60;1.50;;;23.20;52.80;;;;;;5074594;28;20448;-82
2022/05/02 01:27:13;;;;;;;1.73;1.63;;;23.20;52.80;;;;;;5074794;28;20440;-82
2022/05/02 01:29:42;;;;;;;1.80;1.70;;;23.20;52.80;;;;;;5074700;28;20443;-82
2022/05/02 01:32:11;;;;;;;2.37;2.17;;;23.20;52.80;;;;;;5074808;28;20445;-83
2022/05/02 01:34:40;;;;;;;2.03;1.93;;;23.20;52.70;;;;;;5074850;28;20950;-82
2022/05/02 01:37:08;;;;;;;1.70;1.60;;;23.20;52.80;;;;;;5074657;28;20456;-82
2022/05/02 01:39:36;;;;;;;1.90;1.80;;;23.20;52.80;;;;;;5074535;28;20449;-83
2022/05/02 01:42:04;;;;;;;2.10;2.00;;;23.20;52.80;;;;;;5074212;28;20456;-83
2022/05/02 01:44:31;;;;;;;2.00;1.70;;;23.20;52.80;;;;;;5074349;28;20473;-83
2022/05/02 01:46:58;;;;;;;1.70;1.60;;;23.20;52.80;;;;;;5074281;28;20471;-83
2022/05/02 01:49:26;;;;;;;1.67;1.57;;;23.20;52.80;;;;;;5056521;28;20441;-83
2022/05/02 01:51:53;;;;;;;2.73;2.53;;;23.20;52.70;;;;;;5056300;28;20444;-86
2022/05/02 01:54:19;;;;;;;2.33;2.13;;;23.20;52.70;;;;;;5074086;28;20467;-82
2022/05/02 01:56:48;;;;;;;1.83;1.73;;;23.20;52.70;;;;;;5074115;28;20493;-83
2022/05/02 01:59:14;;;;;;;1.73;1.63;;;23.20;52.70;;;;;;5074091;28;20452;-83
2022/05/02 02:01:41;;;;;;;1.57;1.47;;;23.20;52.70;;;;;;5073816;28;20819;-82
2022/05/02 02:06:49;;;;;;;1.90;1.80;;;23.20;52.70;;;;;;5073365;28;20468;-83
2022/05/02 02:09:16;;;;;;;2.50;2.30;;;23.20;52.70;;;;;;5074433;28;20436;-82
2022/05/02 02:11:43;;;;;;;1.87;1.77;;;23.20;52.70;;;;;;5074027;28;20935;-82
2022/05/02 02:14:14;;;;;;;1.93;1.83;;;23.20;52.70;;;;;;5074048;28;20455;-83
2022/05/02 02:16:41;;;;;;;2.53;2.23;;;23.20;52.70;;;;;;5074126;28;20845;-83
2022/05/02 02:19:08;;;;;;;1.90;1.80;;;23.20;52.70;;;;;;5074265;28;20439;-83
2022/05/02 02:21:35;;;;;;;2.00;1.90;;;23.20;52.70;;;;;;5074054;28;20448;-83
2022/05/02 02:24:03;;;;;;;2.17;2.07;;;23.20;52.60;;;;;;5073910;28;20447;-83
2022/05/02 02:26:30;;;;;;;2.10;1.93;;;23.20;52.60;;;;;;5074038;28;20433;-82
2022/05/02 02:28:57;;;;;;;1.87;1.77;;;23.20;52.60;;;;;;5073833;28;20449;-84
2022/05/02 02:31:26;;;;;;;1.93;1.83;;;23.20;52.60;;;;;;5074115;28;20836;-83
2022/05/02 02:33:52;;;;;;;2.13;2.03;;;23.20;52.60;;;;;;5073985;28;20437;-83
2022/05/02 02:36:19;;;;;;;2.03;1.93;;;23.20;52.60;;;;;;5073556;28;20487;-83
2022/05/02 02:38:46;;;;;;;2.30;2.10;;;23.20;52.60;;;;;;5073786;28;20799;-83
2022/05/02 02:41:13;;;;;;;2.13;2.03;;;23.10;52.50;;;;;;5073722;28;20443;-83
2022/05/02 02:43:39;;;;;;;1.80;1.70;;;23.10;52.50;;;;;;5073557;28;20445;-83
2022/05/02 02:46:06;;;;;;;2.17;2.07;;;23.10;52.50;;;;;;5073521;28;20475;-88
2022/05/02 02:48:34;;;;;;;2.00;1.90;;;23.10;52.50;;;;;;5073478;28;20955;-83
2022/05/02 02:51:02;;;;;;;2.33;2.20;;;23.10;52.50;;;;;;5073634;28;20463;-86
2022/05/02 02:53:29;;;;;;;1.93;1.77;;;23.10;52.50;;;;;;5073722;28;20452;-83
2022/05/02 02:55:56;;;;;;;1.83;1.70;;;23.10;52.50;;;;;;5073337;28;20480;-84
2022/05/02 02:58:23;;;;;;;2.17;2.07;;;23.10;52.50;;;;;;5073602;28;20521;-88
2022/05/02 03:00:50;;;;;;;1.90;1.50;;;23.10;53.10;;;;;;5073497;28;20867;-83
2022/05/02 03:03:17;;;;;;;1.80;1.70;;;23.10;52.50;;;;;;5073068;28;20443;-83
2022/05/02 03:06:02;;;;;;;1.70;1.60;;;23.10;52.50;;;;;;5073292;28;20506;-83
2022/05/02 03:08:29;;;;;;;2.07;1.87;;;23.10;52.50;;;;;;5073298;28;20429;-83
2022/05/02 03:10:56;;;;;;;2.10;2.00;;;23.10;52.50;;;;;;5073516;28;20792;-84
2022/05/02 03:13:23;;;;;;;1.80;1.70;;;23.10;52.50;;;;;;5073273;28;20432;-83
2022/05/02 03:15:50;;;;;;;2.00;1.90;;;23.10;52.50;;;;;;5072938;28;20542;-87
2022/05/02 03:18:17;;;;;;;1.70;1.60;;;23.10;52.50;;;;;;5073270;28;20449;-87
2022/05/02 03:20:45;;;;;;;2.30;2.13;;;22.90;52.30;;;;;;5073072;28;20435;-83
2022/05/02 03:23:12;;;;;;;1.87;1.77;;;23.10;52.40;;;;;;5073326;28;20460;-82
2022/05/02 03:25:38;;;;;;;1.63;1.53;;;23.10;52.50;;;;;;5073344;28;20516;-83
2022/05/02 03:28:06;;;;;;;2.20;2.10;;;23.10;52.50;;;;;;5073184;28;20433;-83
2022/05/02 03:30:32;;;;;;;1.73;1.60;;;23.10;52.50;;;;;;5073270;28;20428;-87
2022/05/02 03:32:59;;;;;;;2.07;1.97;;;23.10;52.50;;;;;;5073046;28;20436;-85
2022/05/02 03:35:27;;;;;;;1.67;1.57;;;23.10;52.50;;;;;;5072928;28;20440;-82
2022/05/02 03:37:55;;;;;;;1.93;1.83;;;23.10;52.40;;;;;;5073175;28;20441;-83
2022/05/02 03:40:22;;;;;;;1.93;1.83;;;23.10;52.40;;;;;;5073128;28;20433;-83
2022/05/02 03:42:49;;;;;;;1.70;1.60;;;23.10;52.40;;;;;;5073128;28;20437;-84
2022/05/02 03:45:16;;;;;;;1.83;1.73;;;23.10;52.40;;;;;;5073016;28;20807;-83
2022/05/02 03:47:43;;;;;;;2.70;2.40;;;23.10;52.50;;;;;;5073009;28;20432;-83
2022/05/02 03:50:10;;;;;;;2.00;1.90;;;23.10;52.40;;;;;;5072945;28;20432;-83
2022/05/02 03:52:37;;;;;;;2.50;2.30;;;23.10;52.50;;;;;;5072762;28;20432;-83
2022/05/02 03:55:06;;;;;;;2.60;1.83;;;23.10;52.40;;;;;;5072422;28;20890;-82
2022/05/02 03:57:33;;;;;;;2.20;2.10;;;23.10;52.40;;;;;;5073000;28;20485;-83
2022/05/02 03:59:59;;;;;;;2.27;2.00;;;23.10;52.40;;;;;;5073078;28;20457;-83
2022/05/02 04:02:26;;;;;;;2.00;1.90;;;23.10;52.40;;;;;;5072928;28;20442;-83
2022/05/02 04:04:53;;;;;;;2.17;2.00;;;23.10;52.40;;;;;;5072714;28;20473;-83
2022/05/02 04:07:20;;;;;;;2.37;2.17;;;23.00;52.30;;;;;;5072765;28;20951;-84
2022/05/02 04:09:46;;;;;;;2.40;2.20;;;23.10;52.30;;;;;;5072863;28;20447;-84
2022/05/02 04:12:14;;;;;;;2.23;2.13;;;23.10;52.40;;;;;;5072901;28;20467;-83
2022/05/02 04:14:41;;;;;;;1.40;1.30;;;23.00;52.30;;;;;;5074317;28;20461;-83
2022/05/02 04:17:09;;;;;;;2.13;1.93;;;23.00;52.30;;;;;;5075915;28;20491;-83
2022/05/02 04:19:36;;;;;;;2.00;1.80;;;23.00;52.30;;;;;;5058843;28;20843;-84
2022/05/02 04:22:03;;;;;;;1.97;1.77;;;23.00;52.30;;;;;;5076083;28;20441;-83
2022/05/02 04:24:30;;;;;;;1.90;1.80;;;23.00;52.40;;;;;;5076032;28;20920;-83
2022/05/02 04:26:57;;;;;;;1.97;1.87;;;23.00;52.30;;;;;;5075875;28;20444;-82
2022/05/02 04:29:26;;;;;;;2.07;1.97;;;23.00;52.30;;;;;;5076120;28;20447;-83
2022/05/02 04:31:53;;;;;;;1.70;1.60;;;23.00;52.30;;;;;;5076437;28;20441;-83
2022/05/02 04:34:19;;;;;;;1.77;1.67;;;23.00;52.30;;;;;;5076163;28;20436;-83
2022/05/02 04:36:46;;;;;;;2.00;1.90;;;23.00;52.30;;;;;;5075899;28;20575;-89
2022/05/02 04:39:13;;;;;;;2.40;2.20;;;23.00;52.30;;;;;;5075909;28;20449;-84
2022/05/02 04:41:42;;;;;;;1.90;1.80;;;23.00;52.30;;;;;;5075847;28;20444;-84
2022/05/02 04:44:09;;;;;;;2.10;2.00;;;23.00;52.30;;;;;;5075805;28;20475;-85
2022/05/02 04:46:37;;;;;;;1.97;1.80;;;23.00;52.30;;;;;;5075663;28;20965;-84
2022/05/02 04:49:04;;;;;;;2.40;2.30;;;23.00;52.30;;;;;;5075808;28;20439;-84
2022/05/02 04:51:31;;;;;;;1.90;1.80;;;23.00;52.30;;;;;;5075922;28;20436;-84
2022/05/02 04:53:58;;;;;;;2.03;1.93;;;23.00;52.30;;;;;;5075635;28;20449;-84
2022/05/02 04:56:24;;;;;;;1.87;1.77;;;23.00;52.30;;;;;;5075656;28;20481;-84
2022/05/02 04:58:51;;;;;;;2.20;2.10;;;23.00;52.30;;;;;;5075686;28;20439;-86
2022/05/02 05:01:18;;;;;;;2.00;1.90;;;23.00;52.30;;;;;;5075454;28;20437;-87
2022/05/02 05:03:47;;;;;;;2.20;2.10;;;23.00;52.30;;;;;;5076181;28;20437;-83
2022/05/02 05:06:14;;;;;;;2.00;1.80;;;23.00;52.30;;;;;;5074951;28;20472;-84
2022/05/02 05:08:41;;;;;;;2.30;2.20;;;23.10;52.30;;;;;;5075496;28;20433;-83
2022/05/02 05:11:24;;;;;;;2.20;2.10;;;23.00;52.30;;;;;;5075412;28;20445;-83
2022/05/02 05:17:15;;;;;;;1.70;1.60;;;23.00;52.30;;;;;;5060620;28;20488;-84
2022/05/02 05:20:02;;;;;;;1.63;1.53;;;23.00;52.30;;;;;;5075147;28;20503;-83
2022/05/02 05:22:52;;;;;;;2.17;1.97;;;23.00;52.30;;;;;;5075188;28;20447;-84
2022/05/02 05:25:32;;;;;;;2.07;1.87;;;22.90;52.30;;;;;;5074517;28;20445;-83
2022/05/02 05:28:17;;;;;;;1.93;1.83;;;22.90;52.30;;;;;;5074971;28;20802;-83
2022/05/02 05:30:46;;;;;;;2.13;2.03;;;22.90;52.30;;;;;;5075140;28;20436;-83
2022/05/02 05:33:24;;;;;;;2.20;2.00;;;22.90;52.30;;;;;;5074910;28;20947;-83
2022/05/02 05:36:08;;;;;;;2.13;2.03;;;22.90;52.30;;;;;;5074779;28;20950;-88
2022/05/02 05:38:42;;;;;;;1.97;1.87;;;23.00;52.40;;;;;;5074859;28;20448;-83
2022/05/02 05:41:22;;;;;;;2.17;2.07;;;22.90;52.30;;;;;;5075036;28;20942;-85
2022/05/02 05:44:07;;;;;;;1.97;1.87;;;23.00;52.30;;;;;;5074684;28;20532;-85
2022/05/02 05:47:02;;;;;;;3.00;2.13;;;23.00;52.40;;;;;;5074465;28;20445;-83
2022/05/02 05:49:42;;;;;;;1.70;1.60;;;22.90;52.30;;;;;;5071405;28;20455;-84
2022/05/02 05:52:14;;;;;;;2.40;2.20;;;22.90;52.30;;;;;;5075129;28;20529;-83
2022/05/02 05:54:56;;;;;;;2.10;2.00;;;22.90;52.30;;;;;;5074493;28;20449;-84
2022/05/02 05:57:32;;;;;;;2.23;2.03;;;22.90;52.30;;;;;;5074500;28;20490;-84
2022/05/02 06:00:06;;;;;;;2.20;2.10;;;22.90;52.30;;;;;;5074560;28;20440;-84
2022/05/02 06:02:43;;;;;;;1.60;1.50;;;22.90;52.30;;;;;;5074325;28;20431;-83
2022/05/02 06:05:13;;;;;;;1.73;1.63;;;23.00;52.40;;;;;;5074118;28;20475;-84
2022/05/02 06:07:41;;;;;;;2.07;1.97;;;22.90;52.30;;;;;;5074166;28;20441;-84
2022/05/02 06:10:10;;;;;;;2.00;1.90;;;22.90;52.30;;;;;;5074163;28;20425;-85
2022/05/02 06:12:39;;;;;;;2.43;1.70;;;22.90;52.40;;;;;;5074373;28;20437;-84
2022/05/02 06:20:39;;;;;;;1.77;1.67;;;22.90;52.50;;;;;;5074373;28;20413;-85
2022/05/02 06:23:10;;;;;;;2.80;2.07;;;22.90;52.60;;;;;;5074524;28;20864;-85
2022/05/02 06:25:38;;;;;;;2.67;2.00;;;22.90;52.60;;;;;;5076751;28;20445;-83
2022/05/02 06:28:07;;;;;;;3.50;1.93;;;22.90;52.60;;;;;;5078609;28;20445;-81
2022/05/02 06:30:37;;;;;;;2.50;1.90;;;22.90;52.60;;;;;;5076583;28;20445;-84
2022/05/02 06:33:11;;;;;;;4.10;2.33;;;22.90;52.60;;;;;;5074251;28;20606;-87
2022/05/02 06:35:56;;;;;;;1.70;1.60;;;23.00;52.80;;;;;;5073422;28;21009;-85
2022/05/02 06:38:38;;;;;;;2.63;1.87;;;23.00;52.90;;;;;;5073015;28;20488;-85
2022/05/02 06:41:11;;;;;;;1.60;1.50;;;23.00;52.90;;;;;;5073715;28;20432;-84
2022/05/02 06:43:55;;;;;;;1.77;1.67;;;23.00;53.00;;;;;;5073655;28;20432;-85
2022/05/02 06:46:29;;;;;;;2.13;1.50;;;23.00;53.10;;;;;;5073798;28;20445;-84
2022/05/02 06:48:57;;;;;;;1.80;1.70;;;23.10;53.10;;;;;;5073878;28;20435;-84
2022/05/02 06:51:30;;;;;;;1.83;1.73;;;23.00;53.00;;;;;;5072903;28;20444;-83
2022/05/02 06:54:16;;;;;;;1.80;1.70;;;23.00;53.00;;;;;;5073351;28;20939;-89
2022/05/02 06:56:45;;;;;;;2.27;2.13;;;23.10;53.20;;;;;;5072871;28;20986;-88
2022/05/02 06:59:26;;;;;;;2.00;1.80;;;23.00;53.20;;;;;;5072850;28;20449;-84
2022/05/02 07:01:59;;;;;;;2.07;1.70;;;23.10;53.10;;;;;;5072357;28;20514;-84
2022/05/02 07:04:41;;;;;;;2.03;1.93;;;23.10;53.20;;;;;;5073029;28;20451;-85
2022/05/02 07:07:42;;;;;;;5.73;2.00;;;23.10;53.20;;;;;;5074017;28;20620;-88
2022/05/02 07:10:14;;;;;;;2.10;2.00;;;23.10;53.20;;;;;;4992281;28;20894;-84
2022/05/02 07:12:50;;;;;;;4.33;2.57;;;23.10;53.30;;;;;;5041222;28;20449;-83
2022/05/02 07:15:24;;;;;;;2.83;2.13;;;23.10;53.20;;;;;;5058073;28;20465;-88
2022/05/02 07:18:06;;;;;;;2.63;2.10;;;23.10;53.20;;;;;;5053247;28;20480;-86
2022/05/02 07:20:42;;;;;;;3.13;2.80;;;23.20;53.20;;;;;;5055563;28;20452;-87
2022/05/02 07:23:30;;;;;;;6.20;3.53;;;23.10;53.10;;;;;;5073117;28;20448;-87
2022/05/02 07:29:25;;;;;;;2.73;2.50;;;23.10;53.10;;;;;;5064090;28;20448;-81
2022/05/02 07:31:52;;;;;;;2.87;2.33;;;23.10;52.90;;;;;;5073573;28;20973;-82
2022/05/02 07:34:21;;;;;;;3.20;2.13;;;23.20;52.90;;;;;;5073443;28;20449;-88
2022/05/02 07:36:52;;;;;;;5.37;2.33;;;23.10;53.50;;;;;;5075821;28;20476;-87
2022/05/02 07:39:22;;;;;;;2.50;2.30;;;23.20;53.10;;;;;;5072938;28;20440;-85
2022/05/02 07:41:51;;;;;;;3.30;3.10;;;23.20;53.10;;;;;;5072212;28;20448;-84
2022/05/02 07:44:20;;;;;;;2.67;2.47;;;23.20;53.00;;;;;;5051258;28;20831;-86
2022/05/02 07:46:49;;;;;;;2.53;2.33;;;23.10;52.90;;;;;;5071587;28;20485;-89
2022/05/02 07:49:22;;;;;;;1.90;1.70;;;23.20;52.80;;;;;;5075118;28;20467;-84
2022/05/02 07:51:51;;;;;;;1.80;1.70;;;23.20;52.90;;;;;;5076208;28;20437;-82
2022/05/02 07:54:21;;;;;;;5.97;2.77;;;23.10;53.00;;;;;;5076610;28;20440;-87
2022/05/02 07:56:50;;;;;;;2.70;2.50;;;23.20;53.10;;;;;;5076961;28;20520;-88
2022/05/02 07:59:24;;;;;;;3.87;2.60;;;23.10;52.90;;;;;;5077250;28;20451;-81
2022/05/02 08:01:51;;;;;;;2.07;1.70;;;23.20;52.90;;;;;;5078774;28;20512;-81
2022/05/02 08:04:18;;;;;;;2.37;1.87;;;23.20;53.00;;;;;;5077323;28;20439;-82
2022/05/02 08:06:57;;;;;;;2.30;2.10;;;23.20;53.20;;;;;;5076194;28;20480;-82
2022/05/02 08:09:49;;;;;;;3.00;1.83;;;23.20;53.30;;;;;;5076256;28;20441;-82
2022/05/02 08:12:26;;;;;;;2.20;1.97;;;23.30;53.40;;;;;;5076415;28;20464;-82
2022/05/02 08:15:02;;;;;;;2.47;2.00;;;23.20;53.50;;;;;;5075956;28;20456;-83
2022/05/02 08:17:56;;;;;;;2.23;2.03;;;23.30;53.60;;;;;;5076196;28;20554;-84
2022/05/02 08:20:28;;;;;;;2.17;2.03;;;23.30;53.70;;;;;;5076004;28;20445;-82
2022/05/02 08:28:55;;;;;;;3.00;1.80;;;23.30;53.80;;;;;;5076153;28;20421;-89
2022/05/02 08:31:38;;;;;;;3.00;1.87;;;23.20;53.70;;;;;;5076365;28;20453;-83
2022/05/02 08:34:16;;;;;;;2.03;1.70;;;23.40;53.90;;;;;;5074319;28;20472;-83
2022/05/02 08:36:51;;;;;;;1.93;1.80;;;23.40;53.90;;;;;;5075055;28;20821;-83
2022/05/02 08:39:28;;;;;;;2.53;2.30;;;23.40;53.90;;;;;;5075720;28;20911;-90
2022/05/02 08:42:41;;;;;;;1.93;1.73;;;23.40;53.90;;;;;;5076343;28;20467;-85
2022/05/02 08:45:42;;;;;;;2.67;2.30;;;23.50;54.00;;;;;;5060965;28;20540;-84
2022/05/02 08:48:46;;;;;;;2.87;2.47;;;23.50;54.00;;;;;;5078767;28;20499;-83
2022/05/02 08:51:58;;;;;;;2.30;2.10;;;23.50;54.10;;;;;;5057666;28;20453;-83
2022/05/02 08:55:05;;;;;;;2.60;2.13;;;23.50;54.10;;;;;;4994283;28;20867;-83
2022/05/02 08:58:29;;;;;;;4.60;2.37;;;23.60;54.30;;;;;;5075767;28;20491;-90
2022/05/02 09:01:16;;;;;;;2.07;1.97;;;23.60;54.30;;;;;;4993812;28;20447;-83
2022/05/02 09:04:12;;;;;;;2.47;2.30;;;23.50;53.30;;;;;;4994234;28;20451;-82
2022/05/02 09:07:10;;;;;;;2.50;2.30;;;23.60;53.50;;;;;;5023985;28;20488;-84
2022/05/02 09:09:52;;;;;;;3.70;2.60;;;23.60;53.00;;;;;;5075301;28;20448;-82
2022/05/02 09:12:58;;;;;;;4.70;2.37;;;23.60;52.80;;;;;;5075112;28;20450;-82
2022/05/02 09:16:09;;;;;;;2.97;2.77;;;23.60;52.70;;;;;;5054668;28;20484;-89
2022/05/02 09:19:11;;;;;;;3.57;2.20;;;23.60;53.10;;;;;;5063069;28;20480;-82
2022/05/02 09:22:05;;;;;;;3.23;2.17;;;23.60;53.60;;;;;;5074921;28;20797;-84
2022/05/02 09:25:04;;;;;;;6.60;3.23;;;23.70;53.70;;;;;;5074656;28;20448;-83
2022/05/02 09:27:43;;;;;;;3.63;2.47;;;23.60;52.80;;;;;;5070280;28;20494;-81
2022/05/02 09:30:38;;;;;;;2.50;2.30;;;23.70;53.20;;;;;;5056778;28;20437;-82
2022/05/02 09:33:22;;;;;;;2.63;2.43;;;23.70;53.60;;;;;;5072612;28;20441;-84
2022/05/02 09:35:54;;;;;;;3.83;2.40;;;23.80;53.80;;;;;;5059057;28;20445;-83
2022/05/02 09:38:26;;;;;;;2.13;1.80;;;23.80;53.80;;;;;;5074991;28;20481;-85
2022/05/02 09:41:00;;;;;;;3.00;2.70;;;23.80;53.80;;;;;;5074690;28;20555;-85
2022/05/02 09:49:36;;;;;;;5.67;2.03;;;23.80;53.50;;;;;;5074820;28;20429;-81
2022/05/02 09:52:09;;;;;;;4.90;2.27;;;23.80;53.20;;;;;;5074683;28;20473;-87
2022/05/02 09:58:03;;;;;;;3.53;2.20;;;23.80;53.80;;;;;;5074588;28;20621;-83
2022/05/02 10:03:37;;;;;;;3.37;2.17;;;23.80;53.10;;;;;;5074319;28;20415;-84
2022/05/02 10:06:06;;;;;;;2.43;2.23;;;23.80;53.20;;;;;;5074197;28;20473;-83
2022/05/02 10:08:48;;;;;;;2.37;2.17;;;23.80;53.20;;;;;;5074430;28;20444;-83
2022/05/02 10:11:27;;;;;;;2.40;2.20;;;23.80;53.10;;;;;;5073953;28;20444;-88
2022/05/02 10:14:08;;;;;;;2.53;2.00;;;23.80;53.10;;;;;;5073849;28;20460;-85
2022/05/02 10:16:45;;;;;;;2.57;2.27;;;23.80;53.20;;;;;;5074260;28;20433;-84
2022/05/02 10:19:18;;;;;;;3.30;2.20;;;23.80;53.30;;;;;;5074258;28;20480;-85
2022/05/02 10:22:21;;;;;;;2.90;2.27;;;23.80;53.30;;;;;;5074194;28;20429;-84
2022/05/02 10:25:11;;;;;;;5.53;2.27;;;23.90;53.50;;;;;;5060483;28;20432;-83
2022/05/02 10:28:00;;;;;;;7.07;2.53;;;23.90;54.10;;;;;;5074013;28;20527;-86
2022/05/02 10:30:38;;;;;;;4.93;2.93;;;23.90;54.00;;;;;;5074723;28;20790;-86
2022/05/02 10:33:11;;;;;;;2.57;2.37;;;23.90;53.60;;;;;;5056137;28;20968;-86
2022/05/02 10:35:42;;;;;;;4.10;2.63;;;23.90;53.70;;;;;;5073769;28;20432;-86
2022/05/02 10:38:09;;;;;;;2.60;2.00;;;23.90;54.00;;;;;;5073685;28;20476;-87
2022/05/02 10:40:40;;;;;;;3.57;2.20;;;24.00;54.30;;;;;;5073615;28;20478;-85
2022/05/02 10:43:09;;;;;;;2.63;2.00;;;24.00;54.20;;;;;;5073425;28;20460;-85
2022/05/02 10:45:39;;;;;;;2.43;2.20;;;24.00;54.20;;;;;;5073723;28;20441;-84
2022/05/02 10:48:15;;;;;;;3.63;2.17;;;24.00;54.30;;;;;;5055589;28;20429;-83
2022/05/02 10:50:51;;;;;;;4.60;2.57;;;24.10;54.40;;;;;;5073539;28;20848;-85
2022/05/02 10:53:37;;;;;;;2.33;1.90;;;24.10;54.40;;;;;;5073654;28;20448;-83
2022/05/02 10:56:19;;;;;;;2.20;2.00;;;24.20;54.40;;;;;;5073803;28;20440;-86
2022/05/02 10:58:47;;;;;;;2.57;2.37;;;24.20;54.00;;;;;;5073110;28;20480;-84
2022/05/02 11:01:39;;;;;;;2.67;2.40;;;24.10;53.50;;;;;;5073114;28;20447;-84
2022/05/02 11:04:17;;;;;;;3.17;2.20;;;24.10;53.30;;;;;;5073102;28;20966;-85
2022/05/02 11:06:56;;;;;;;2.83;2.00;;;24.10;53.10;;;;;;5073466;28;20480;-84
2022/05/02 11:09:30;;;;;;;6.67;2.40;;;24.10;53.10;;;;;;5073384;28;20441;-83
2022/05/02 11:12:00;;;;;;;4.13;2.03;;;24.10;53.20;;;;;;5073494;28;20441;-83
2022/05/02 11:14:39;;;;;;;1.90;1.80;;;24.10;53.20;;;;;;5072915;28;20469;-83
2022/05/02 11:17:19;;;;;;;2.40;2.10;;;24.10;53.00;;;;;;5073169;28;20455;-82
2022/05/02 11:22:43;;;;;;;6.13;2.40;;;24.10;53.00;;;;;;5073266;28;20982;-82
2022/05/02 11:25:14;;;;;;;2.10;2.00;;;24.10;53.00;;;;;;5077370;28;20436;-82
2022/05/02 11:28:02;;;;;;;2.37;2.10;;;24.10;53.00;;;;;;5077181;28;20451;-82
2022/05/02 11:30:29;;;;;;;2.70;2.17;;;24.10;52.90;;;;;;5077046;28;20436;-81
2022/05/02 11:33:12;;;;;;;2.00;1.90;;;24.10;53.00;;;;;;5075035;28;20970;-84
2022/05/02 11:35:40;;;;;;;3.90;2.70;;;24.20;53.20;;;;;;5077817;28;20793;-83
2022/05/02 11:38:18;;;;;;;2.20;2.10;;;24.10;53.20;;;;;;5072843;28;21009;-82
2022/05/02 11:40:47;;;;;;;9.97;2.30;;;24.10;53.10;;;;;;5076362;28;20467;-83
2022/05/02 11:43:19;;;;;;;2.33;2.07;;;24.10;53.10;;;;;;5076591;28;20468;-81
2022/05/02 11:45:57;;;;;;;4.90;2.20;;;24.20;53.50;;;;;;5076499;28;20472;-84
2022/05/02 11:48:41;;;;;;;3.57;2.03;;;24.20;54.10;;;;;;5076254;28;20440;-84
2022/05/02 11:51:16;;;;;;;2.53;2.07;;;24.20;54.20;;;;;;5076614;28;20433;-82
2022/05/02 11:53:48;;;;;;;2.30;2.10;;;24.30;54.40;;;;;;5076506;28;20440;-84
2022/05/02 11:56:17;;;;;;;3.93;2.07;;;24.30;54.40;;;;;;5076533;28;20448;-85
2022/05/02 11:58:46;;;;;;;1.97;1.83;;;24.40;54.50;;;;;;5076468;28;20476;-85
2022/05/02 12:01:21;;;;;;;2.80;2.50;;;24.40;54.50;;;;;;5058292;28;20532;-84
2022/05/02 12:03:55;;;;;;;3.10;2.80;;;24.40;54.50;;;;;;5076536;28;20811;-85
2022/05/02 12:22:55;;;;;;;2.80;1.80;;;24.50;54.70;;;;;;5014763;28;20455;-86
2022/05/02 12:25:23;;;;;;;2.33;1.90;;;24.60;54.90;;;;;;5014313;28;20442;-82
2022/05/02 12:27:51;;;;;;;2.40;2.30;;;24.50;54.80;;;;;;5014037;28;20486;-82
2022/05/02 12:30:20;;;;;;;3.17;2.57;;;24.60;54.80;;;;;;5028794;28;20792;-83
2022/05/02 12:32:48;;;;;;;2.80;2.00;;;24.60;55.30;;;;;;5076208;28;20468;-83
2022/05/02 12:35:18;;;;;;;2.23;2.03;;;24.70;54.70;;;;;;5074552;28;20951;-85
2022/05/02 12:37:47;;;;;;;2.67;2.23;;;24.70;54.60;;;;;;5075062;28;20449;-84
2022/05/02 12:40:18;;;;;;;2.80;2.17;;;24.70;54.60;;;;;;5075809;28;20445;-85
2022/05/02 12:42:49;;;;;;;2.60;2.40;;;24.70;54.40;;;;;;5075853;28;20437;-84
2022/05/02 12:45:18;;;;;;;2.17;1.97;;;24.70;53.60;;;;;;5075504;28;20441;-82
2022/05/02 12:47:51;;;;;;;2.20;2.00;;;24.70;53.80;;;;;;5075058;28;20453;-84
2022/05/02 12:50:21;;;;;;;2.00;1.90;;;24.70;53.80;;;;;;5081517;28;20436;-91
2022/05/02 12:52:49;;;;;;;2.80;2.00;;;24.60;53.10;;;;;;5074710;28;20445;-83
2022/05/02 12:55:20;;;;;;;2.23;2.07;;;24.60;52.90;;;;;;5055671;28;20497;-85
2022/05/02 13:00:39;;;;;;;2.60;2.50;;;24.50;53.20;;;;;;5075662;28;20436;-82
2022/05/02 13:03:17;;;;;;;2.83;2.20;;;24.40;53.10;;;;;;5075311;28;20799;-81
2022/05/02 13:05:53;;;;;;;2.10;2.00;;;24.40;52.90;;;;;;5092088;28;20476;-82
2022/05/02 13:08:29;;;;;;;2.33;2.13;;;24.30;53.10;;;;;;5095698;28;20513;-82
2022/05/02 13:11:05;;;;;;;2.63;2.43;;;24.30;53.20;;;;;;5092397;28;20437;-85
2022/05/02 13:13:42;;;;;;;7.70;2.60;;;24.40;53.80;;;;;;5074665;28;20472;-82
2022/05/02 13:16:17;;;;;;;2.80;2.07;;;24.30;53.20;;;;;;5075146;28;20490;-82
2022/05/02 13:18:48;;;;;;;2.50;2.40;;;24.30;53.30;;;;;;5074892;28;20488;-84
2022/05/02 13:21:16;;;;;;;3.00;2.30;;;24.20;53.30;;;;;;5074909;28;20445;-87
2022/05/02 13:23:44;;;;;;;2.10;1.90;;;24.20;53.30;;;;;;5074690;28;20543;-86
2022/05/02 13:26:37;;;;;;;2.10;1.90;;;24.10;53.30;;;;;;5074683;28;21036;-86
2022/05/02 13:29:09;;;;;;;2.20;2.03;;;24.20;53.40;;;;;;5056970;28;20445;-86
2022/05/02 13:31:45;;;;;;;2.10;2.00;;;24.20;53.30;;;;;;5074680;28;20447;-84
2022/05/02 13:34:24;;;;;;;2.40;2.20;;;24.20;53.60;;;;;;5066308;28;20990;-83
2022/05/02 13:36:58;;;;;;;2.07;1.87;;;24.30;54.10;;;;;;5074253;28;20445;-85
2022/05/02 13:39:32;;;;;;;2.67;2.27;;;24.20;54.20;;;;;;5074342;28;20484;-83
2022/05/02 13:42:06;;;;;;;2.43;1.90;;;24.30;54.30;;;;;;5074756;28;20446;-87
2022/05/02 13:44:43;;;;;;;2.63;2.43;;;24.30;53.80;;;;;;5074719;28;20437;-84
2022/05/02 13:47:12;;;;;;;2.80;2.60;;;24.20;53.30;;;;;;5074486;28;20800;-84
2022/05/02 13:49:57;;;;;;;2.40;2.20;;;24.30;53.70;;;;;;5074153;28;20456;-85
2022/05/02 13:52:35;;;;;;;2.00;1.90;;;24.30;53.90;;;;;;5074547;28;20938;-84
2022/05/02 13:55:10;;;;;;;2.60;2.40;;;24.30;54.00;;;;;;5074476;28;20444;-89
2022/05/02 13:57:46;;;;;;;2.20;2.10;;;24.30;53.60;;;;;;5073159;28;20950;-90
2022/05/02 14:03:30;;;;;;;2.43;2.23;;;24.30;53.60;;;;;;5074185;28;20570;-82
2022/05/02 14:06:00;;;;;;;2.30;2.20;;;24.30;53.30;;;;;;5064782;28;20468;-87
2022/05/02 14:08:31;;;;;;;2.33;2.13;;;24.20;52.80;;;;;;5074095;28;20440;-88
2022/05/02 14:10:58;;;;;;;2.50;2.40;;;24.20;52.70;;;;;;5074251;28;20433;-90
2022/05/02 14:13:28;;;;;;;2.90;2.70;;;24.20;52.80;;;;;;5053948;28;20980;-83
2022/05/02 14:16:03;;;;;;;2.50;2.30;;;24.10;52.60;;;;;;5066775;28;20443;-83
2022/05/02 14:18:33;;;;;;;2.77;2.57;;;24.20;52.70;;;;;;5066053;28;20445;-89
2022/05/02 14:21:01;;;;;;;2.50;2.40;;;24.10;52.70;;;;;;5069055;28;20451;-85